createdAt,value
2018-06-09T00:02:53.090Z,73.02
2018-06-09T00:05:57.468Z,73.56
2018-06-09T00:09:01.883Z,74.15
2018-06-09T00:12:06.258Z,74.08
2018-06-09T00:15:10.621Z,74.19
2018-06-09T00:18:15.009Z,75.22
2018-06-09T00:21:19.357Z,75.03
2018-06-09T00:24:23.725Z,75.23
2018-06-09T00:27:28.101Z,74.63
2018-06-09T00:30:32.193Z,74.70
2018-06-09T00:33:36.600Z,75.48
2018-06-09T00:36:41.795Z,75.55
2018-06-09T00:39:46.176Z,76.17
2018-06-09T00:42:50.530Z,75.84
2018-06-09T00:45:54.904Z,76.55
2018-06-09T00:48:59.266Z,76.49
2018-06-09T00:52:03.637Z,76.94
2018-06-09T00:55:07.682Z,77.24
2018-06-09T00:58:12.066Z,77.00
2018-06-09T01:01:16.412Z,77.55
2018-06-09T01:04:20.774Z,78.39
2018-06-09T01:07:25.145Z,78.46
2018-06-09T01:10:29.512Z,78.62
2018-06-09T01:13:33.877Z,78.84
2018-06-09T01:16:38.249Z,78.80
2018-06-09T01:19:42.657Z,78.40
2018-06-09T01:22:47.010Z,78.84
2018-06-09T01:25:51.397Z,78.99
2018-06-09T01:28:55.772Z,78.67
2018-06-09T01:32:00.162Z,78.49
2018-06-09T01:35:04.538Z,79.12
2018-06-09T01:38:08.941Z,78.62
2018-06-09T01:41:13.288Z,79.40
2018-06-09T01:44:17.646Z,78.95
2018-06-09T01:47:22.044Z,79.69
2018-06-09T01:50:26.413Z,79.03
2018-06-09T01:53:30.792Z,79.67
2018-06-09T01:56:35.156Z,79.28
2018-06-09T01:59:39.549Z,79.36
2018-06-09T02:02:43.925Z,78.97
2018-06-09T02:05:48.281Z,78.84
2018-06-09T02:08:52.644Z,78.17
2018-06-09T02:11:57.009Z,77.66
2018-06-09T02:15:01.382Z,77.60
2018-06-09T02:18:05.769Z,77.67
2018-06-09T02:21:10.145Z,78.18
2018-06-09T02:24:14.488Z,77.72
2018-06-09T02:27:18.877Z,77.11
2018-06-09T02:30:23.233Z,77.41
2018-06-09T02:33:27.612Z,77.77
2018-06-09T02:36:31.964Z,76.96
2018-06-09T02:39:36.353Z,76.93
2018-06-09T02:42:40.711Z,77.24
2018-06-09T02:45:45.065Z,77.18
2018-06-09T02:48:49.446Z,77.76
2018-06-09T02:51:53.827Z,76.49
2018-06-09T02:54:58.206Z,76.37
2018-06-09T02:58:02.590Z,77.21
2018-06-09T03:01:06.978Z,76.39
2018-06-09T03:04:11.353Z,77.00
2018-06-09T03:07:15.746Z,76.48
2018-06-09T03:10:20.100Z,76.23
2018-06-09T03:13:24.486Z,75.46
2018-06-09T03:16:28.861Z,75.30
2018-06-09T03:19:33.232Z,75.40
2018-06-09T03:22:37.605Z,75.17
2018-06-09T03:25:41.977Z,74.12
2018-06-09T03:28:46.329Z,74.11
2018-06-09T03:31:50.709Z,74.61
2018-06-09T03:34:55.061Z,74.05
2018-06-09T03:37:59.471Z,73.48
2018-06-09T03:41:03.836Z,72.50
2018-06-09T03:44:08.225Z,72.22
2018-06-09T03:47:12.582Z,72.12
2018-06-09T03:50:16.952Z,72.34
2018-06-09T03:53:21.321Z,71.96
2018-06-09T03:56:25.685Z,71.67
2018-06-09T03:59:30.085Z,70.83
2018-06-09T04:02:34.449Z,70.90
2018-06-09T04:05:38.814Z,70.28
2018-06-09T04:08:43.201Z,69.31
2018-06-09T04:11:47.561Z,69.58
2018-06-09T04:14:51.920Z,69.12
2018-06-09T04:17:56.283Z,68.60
2018-06-09T04:21:00.664Z,68.52
2018-06-09T04:24:05.068Z,68.38
2018-06-09T04:27:09.412Z,67.64
2018-06-09T04:30:13.817Z,68.14
2018-06-09T04:33:18.189Z,67.60
2018-06-09T04:36:22.569Z,67.35
2018-06-09T04:39:26.937Z,67.30
2018-06-09T04:42:31.325Z,66.75
2018-06-09T04:45:35.677Z,67.10
2018-06-09T04:48:40.069Z,66.41
2018-06-09T04:51:44.441Z,66.48
2018-06-09T04:54:48.822Z,66.25
2018-06-09T04:57:53.164Z,65.94
2018-06-09T05:00:57.562Z,65.85
2018-06-09T05:04:01.946Z,65.88
2018-06-09T05:07:06.308Z,65.32
2018-06-09T05:10:10.700Z,64.48
2018-06-09T05:13:15.074Z,63.94
2018-06-09T05:16:19.494Z,63.00
2018-06-09T05:19:23.865Z,63.77
2018-06-09T05:22:28.229Z,63.68
2018-06-09T05:25:32.605Z,63.50
2018-06-09T05:28:36.988Z,64.51
2018-06-09T05:31:41.381Z,64.04
2018-06-09T05:34:45.778Z,62.92
2018-06-09T05:37:50.160Z,62.89
2018-06-09T05:40:55.754Z,60.57
2018-06-09T05:44:00.137Z,60.46
2018-06-09T05:47:04.547Z,61.28
2018-06-09T05:50:08.914Z,60.25
2018-06-09T05:53:13.312Z,60.51
2018-06-09T05:56:17.671Z,60.21
2018-06-09T05:59:22.045Z,59.17
2018-06-09T06:02:26.404Z,58.76
2018-06-09T06:05:30.780Z,56.53
2018-06-09T06:08:35.255Z,56.47
2018-06-09T06:11:39.662Z,57.80
2018-06-09T06:14:44.049Z,56.34
2018-06-09T06:17:48.160Z,56.37
2018-06-09T06:20:52.533Z,57.67
2018-06-09T06:23:56.929Z,56.83
2018-06-09T06:27:01.308Z,56.61
2018-06-09T06:30:05.720Z,55.71
2018-06-09T06:33:10.136Z,55.31
2018-06-09T06:36:14.514Z,55.36
2018-06-09T06:39:18.893Z,55.34
2018-06-09T06:42:23.248Z,55.83
2018-06-09T06:45:27.597Z,54.33
2018-06-09T06:48:31.985Z,54.34
2018-06-09T06:51:36.365Z,54.01
2018-06-09T06:54:40.738Z,54.20
2018-06-09T06:57:45.102Z,56.00
2018-06-09T07:00:49.470Z,56.53
2018-06-09T07:03:53.869Z,57.40
2018-06-09T07:06:58.233Z,58.05
2018-06-09T07:10:02.600Z,59.04
2018-06-09T07:13:06.968Z,60.32
2018-06-09T07:16:11.353Z,61.20
2018-06-09T07:19:15.736Z,62.86
2018-06-09T07:22:20.130Z,63.44
2018-06-09T07:25:24.502Z,63.96
2018-06-09T07:28:28.881Z,65.84
2018-06-09T07:31:33.276Z,67.21
2018-06-09T07:34:37.712Z,69.57
2018-06-09T07:37:42.086Z,71.60
2018-06-09T07:40:46.453Z,72.77
2018-06-09T07:43:50.814Z,74.72
2018-06-09T07:46:55.172Z,75.93
2018-06-09T07:49:59.522Z,77.88
2018-06-09T07:53:03.947Z,77.89
2018-06-09T07:56:08.324Z,78.96
2018-06-09T07:59:12.725Z,80.55
2018-06-09T08:02:17.081Z,80.56
2018-06-09T08:05:21.453Z,81.04
2018-06-09T08:08:25.817Z,81.20
2018-06-09T08:11:30.198Z,81.49
2018-06-09T08:14:34.568Z,82.88
2018-06-09T08:17:38.946Z,83.93
2018-06-09T08:20:43.312Z,82.79
2018-06-09T08:23:47.687Z,82.87
2018-06-09T08:26:52.083Z,82.13
2018-06-09T08:29:56.473Z,81.67
2018-06-09T08:33:00.886Z,82.64
2018-06-09T08:36:05.416Z,81.91
2018-06-09T08:39:11.237Z,81.74
2018-06-09T08:42:18.299Z,81.26
2018-06-09T08:45:22.754Z,80.46
2018-06-09T08:48:27.155Z,81.24
2018-06-09T08:51:31.594Z,81.60
2018-06-09T08:54:36.021Z,81.85
2018-06-09T08:57:40.417Z,81.56
2018-06-09T09:00:44.841Z,81.51
2018-06-09T09:03:49.252Z,81.52
2018-06-09T09:06:53.636Z,81.15
2018-06-09T09:09:58.045Z,81.75
2018-06-09T09:13:02.490Z,80.92
2018-06-09T09:16:06.905Z,80.25
2018-06-09T09:19:11.320Z,81.29
2018-06-09T09:22:15.701Z,81.60
2018-06-09T09:25:20.100Z,79.92
2018-06-09T09:28:24.500Z,78.92
2018-06-09T09:31:28.904Z,80.03
2018-06-09T09:34:33.328Z,80.15
2018-06-09T09:37:37.778Z,80.43
2018-06-09T09:40:42.185Z,79.45
2018-06-09T09:43:46.617Z,81.92
2018-06-09T09:46:51.045Z,82.32
2018-06-09T09:49:55.216Z,80.83
2018-06-09T09:52:59.633Z,81.44
2018-06-09T09:56:04.089Z,80.50
2018-06-09T09:59:08.498Z,80.54
2018-06-09T10:02:13.044Z,79.89
2018-06-09T10:05:18.109Z,80.07
2018-06-09T10:08:22.541Z,81.67
2018-06-09T10:11:26.964Z,80.29
2018-06-09T10:14:31.426Z,79.80
2018-06-09T10:17:35.873Z,79.53
2018-06-09T10:20:40.313Z,79.47
2018-06-09T10:23:44.716Z,79.79
2018-06-09T10:26:49.196Z,79.28
2018-06-09T10:29:53.640Z,77.60
2018-06-09T10:32:58.161Z,77.53
2018-06-09T10:36:02.840Z,78.27
2018-06-09T10:39:09.394Z,78.30
2018-06-09T10:42:14.000Z,77.28
2018-06-09T10:45:21.011Z,76.08
2018-06-09T10:48:25.626Z,75.74
2018-06-09T10:51:30.113Z,75.79
2018-06-09T10:54:37.098Z,75.57
2018-06-09T10:57:41.761Z,74.17
2018-06-09T11:00:47.639Z,74.74
2018-06-09T11:03:52.345Z,74.36
2018-06-09T11:06:56.749Z,70.46
2018-06-09T11:10:01.194Z,72.27
2018-06-09T11:13:05.733Z,71.44
2018-06-09T11:16:10.146Z,70.53
2018-06-09T11:19:14.527Z,69.96
2018-06-09T11:22:18.934Z,71.70
2018-06-09T11:25:23.346Z,70.80
2018-06-09T11:28:27.758Z,68.23
2018-06-09T11:31:32.194Z,68.60
2018-06-09T11:34:36.613Z,69.51
2018-06-09T11:37:41.333Z,67.56
2018-06-09T11:40:45.761Z,68.34
2018-06-09T11:43:50.170Z,68.36
2018-06-09T11:46:54.561Z,65.59
2018-06-09T11:49:58.962Z,65.98
2018-06-09T11:53:03.374Z,65.79
2018-06-09T11:56:07.750Z,65.97
2018-06-09T11:59:12.148Z,65.41
2018-06-09T12:02:16.537Z,65.09
2018-06-09T12:05:20.937Z,64.36
2018-06-09T12:08:25.364Z,62.49
2018-06-09T12:11:29.764Z,61.66
2018-06-09T12:14:34.146Z,62.80
2018-06-09T12:17:38.570Z,61.96
2018-06-09T12:20:42.954Z,60.42
2018-06-09T12:23:47.349Z,59.36
2018-06-09T12:26:51.753Z,57.75
2018-06-09T12:29:56.156Z,56.36
2018-06-09T12:33:00.571Z,55.62
2018-06-09T12:36:05.013Z,57.03
2018-06-09T12:39:09.417Z,53.52
2018-06-09T12:42:13.813Z,51.30
2018-06-09T12:45:18.201Z,52.28
2018-06-09T12:48:22.590Z,51.29
2018-06-09T12:51:26.996Z,53.89
2018-06-09T12:54:31.502Z,53.64
2018-06-09T12:57:35.867Z,55.06
2018-06-09T13:00:40.267Z,54.85
2018-06-09T13:03:44.652Z,54.61
2018-06-09T13:06:49.089Z,53.75
2018-06-09T13:09:53.482Z,55.03
2018-06-09T13:12:57.886Z,53.16
2018-06-09T13:16:02.306Z,50.70
2018-06-09T13:19:07.873Z,47.23
2018-06-09T13:22:12.302Z,48.94
2018-06-09T13:25:16.685Z,48.72
2018-06-09T13:28:21.121Z,49.96
2018-06-09T13:31:26.006Z,50.45
2018-06-09T13:34:30.409Z,50.27
2018-06-09T13:37:34.805Z,52.19
2018-06-09T13:40:39.214Z,53.00
2018-06-09T13:43:43.577Z,51.87
2018-06-09T13:46:47.985Z,52.21
2018-06-09T13:49:52.393Z,52.39
2018-06-09T13:52:56.810Z,50.29
2018-06-09T13:56:01.189Z,49.45
2018-06-09T13:59:05.616Z,49.36
2018-06-09T14:02:10.025Z,49.77
2018-06-09T14:05:14.393Z,50.86
2018-06-09T14:08:18.773Z,52.18
2018-06-09T14:11:23.113Z,51.25
2018-06-09T14:14:27.457Z,51.70
2018-06-09T14:17:31.817Z,52.76
2018-06-09T14:20:36.192Z,51.69
2018-06-09T14:23:40.550Z,51.66
2018-06-09T14:26:44.928Z,52.17
2018-06-09T14:29:49.313Z,52.67
2018-06-09T14:32:53.689Z,52.69
2018-06-09T14:35:58.049Z,53.65
2018-06-09T14:39:02.446Z,53.83
2018-06-09T14:42:06.886Z,51.94
2018-06-09T14:45:11.283Z,54.22
2018-06-09T14:48:15.669Z,53.03
2018-06-09T14:51:20.050Z,53.87
2018-06-09T14:54:24.450Z,54.38
2018-06-09T14:57:28.851Z,55.13
2018-06-09T15:00:33.236Z,56.46
2018-06-09T15:03:37.605Z,54.21
2018-06-09T15:06:42.037Z,55.16
2018-06-09T15:09:46.432Z,56.58
2018-06-09T15:12:50.843Z,56.58
2018-06-09T15:15:55.217Z,57.05
2018-06-09T15:18:59.612Z,57.89
2018-06-09T15:22:04.026Z,57.58
2018-06-09T15:25:08.458Z,57.27
2018-06-09T15:28:12.908Z,56.92
2018-06-09T15:31:17.281Z,54.95
2018-06-09T15:34:21.664Z,55.10
2018-06-09T15:37:26.078Z,54.77
2018-06-09T15:40:30.469Z,53.64
2018-06-09T15:43:34.854Z,53.45
2018-06-09T15:46:39.242Z,53.57
2018-06-09T15:49:43.666Z,54.26
2018-06-09T15:52:48.081Z,54.16
2018-06-09T15:55:52.514Z,54.10
2018-06-09T15:58:56.889Z,53.73
2018-06-09T16:02:01.273Z,54.45
2018-06-09T16:05:05.657Z,52.46
2018-06-09T16:08:10.043Z,52.95
2018-06-09T16:11:14.405Z,52.75
2018-06-09T16:14:18.813Z,51.69
2018-06-09T16:17:23.185Z,51.44
2018-06-09T16:20:27.557Z,51.56
2018-06-09T16:23:31.922Z,49.91
2018-06-09T16:26:36.281Z,50.08
2018-06-09T16:29:40.641Z,51.00
2018-06-09T16:32:45.032Z,49.79
2018-06-09T16:35:49.413Z,49.14
2018-06-09T16:38:53.803Z,48.86
2018-06-09T16:41:58.177Z,48.69
2018-06-09T16:45:02.541Z,49.01
2018-06-09T16:48:07.025Z,49.02
2018-06-09T16:51:11.400Z,48.14
2018-06-09T16:54:15.809Z,49.76
2018-06-09T16:57:20.205Z,49.43
2018-06-09T17:00:24.583Z,47.59
2018-06-09T17:03:28.961Z,49.21
2018-06-09T17:06:33.356Z,48.56
2018-06-09T17:09:37.725Z,50.50
2018-06-09T17:12:42.104Z,49.50
2018-06-09T17:15:46.480Z,49.65
2018-06-09T17:18:50.864Z,50.02
2018-06-09T17:21:55.253Z,49.98
2018-06-09T17:24:59.628Z,50.38
2018-06-09T17:28:03.998Z,49.96
2018-06-09T17:31:08.385Z,50.28
2018-06-09T17:34:12.753Z,51.40
2018-06-09T17:37:17.152Z,51.47
2018-06-09T17:40:21.578Z,50.99
2018-06-09T17:43:25.971Z,50.92
2018-06-09T17:46:30.349Z,52.56
2018-06-09T17:49:34.743Z,52.19
2018-06-09T17:52:39.097Z,52.11
2018-06-09T17:55:43.469Z,51.85
2018-06-09T17:58:47.837Z,52.50
2018-06-09T18:01:52.233Z,54.15
2018-06-09T18:04:56.625Z,53.69
2018-06-09T18:08:01.029Z,54.50
2018-06-09T18:11:05.396Z,53.66
2018-06-09T18:14:09.781Z,54.75
2018-06-09T18:17:14.165Z,54.19
2018-06-09T18:20:18.576Z,54.34
2018-06-09T18:23:22.973Z,54.55
2018-06-09T18:26:27.426Z,54.34
2018-06-09T18:29:31.749Z,54.39
2018-06-09T18:32:36.128Z,54.80
2018-06-09T18:35:40.509Z,56.77
2018-06-09T18:38:44.899Z,57.05
2018-06-09T18:41:49.260Z,58.75
2018-06-09T18:44:53.646Z,58.60
2018-06-09T18:47:58.008Z,59.84
2018-06-09T18:51:02.401Z,60.36
2018-06-09T18:54:06.881Z,60.55
2018-06-09T18:57:11.265Z,60.90
2018-06-09T19:00:15.669Z,60.29
2018-06-09T19:03:20.066Z,60.04
2018-06-09T19:06:24.480Z,60.14
2018-06-09T19:09:28.873Z,60.66
2018-06-09T19:12:33.425Z,60.44
2018-06-09T19:15:37.830Z,60.97
2018-06-09T19:18:42.220Z,62.28
2018-06-09T19:21:46.586Z,62.51
2018-06-09T19:24:51.013Z,62.32
2018-06-09T19:27:55.383Z,61.83
2018-06-09T19:30:59.766Z,62.88
2018-06-09T19:34:04.149Z,62.63
2018-06-09T19:37:08.537Z,63.39
2018-06-09T19:40:12.931Z,63.62
2018-06-09T19:43:17.296Z,62.75
2018-06-09T19:46:21.694Z,62.11
2018-06-09T19:49:26.072Z,62.82
2018-06-09T19:52:30.465Z,62.85
2018-06-09T19:55:34.874Z,62.50
2018-06-09T19:58:39.250Z,62.76
2018-06-09T20:01:43.626Z,63.82
2018-06-09T20:04:48.018Z,64.41
2018-06-09T20:07:52.421Z,64.55
2018-06-09T20:10:56.792Z,64.68
2018-06-09T20:14:01.193Z,64.12
2018-06-09T20:17:05.641Z,65.03
2018-06-09T20:20:10.018Z,64.89
2018-06-09T20:23:14.384Z,65.13
2018-06-09T20:26:18.485Z,64.45
2018-06-09T20:29:22.894Z,64.48
2018-06-09T20:32:27.336Z,65.67
2018-06-09T20:35:31.741Z,65.85
2018-06-09T20:38:36.145Z,64.91
2018-06-09T20:41:40.504Z,65.92
2018-06-09T20:44:44.892Z,66.58
2018-06-09T20:47:49.281Z,65.31
2018-06-09T20:50:53.741Z,66.60
2018-06-09T20:53:58.214Z,66.32
2018-06-09T20:57:02.581Z,66.42
2018-06-09T21:00:06.973Z,66.87
2018-06-09T21:03:11.369Z,66.99
2018-06-09T21:06:15.734Z,67.46
2018-06-09T21:09:20.115Z,67.77
2018-06-09T21:12:24.521Z,68.69
2018-06-09T21:15:28.909Z,68.43
2018-06-09T21:18:33.264Z,69.06
2018-06-09T21:21:37.627Z,68.63
2018-06-09T21:24:42.002Z,69.37
2018-06-09T21:27:51.441Z,69.27
2018-06-09T21:31:00.880Z,69.62
2018-06-09T21:34:27.605Z,69.57
2018-06-09T21:37:40.245Z,69.72
2018-06-09T21:40:49.239Z,68.85
2018-06-09T21:43:56.724Z,69.62
2018-06-09T21:47:01.129Z,68.99
2018-06-09T21:50:05.767Z,69.62
2018-06-09T21:53:10.166Z,69.25
2018-06-09T21:56:14.269Z,69.99
2018-06-09T21:59:18.635Z,70.13
2018-06-09T22:02:23.398Z,70.16
2018-06-09T22:05:27.854Z,70.22
2018-06-09T22:08:32.242Z,69.50
2018-06-09T22:11:36.613Z,70.05
2018-06-09T22:14:41.025Z,70.75
2018-06-09T22:17:45.405Z,71.98
2018-06-09T22:20:49.768Z,72.46
2018-06-09T22:23:54.124Z,72.71
2018-06-09T22:26:58.486Z,73.00
2018-06-09T22:30:02.902Z,72.00
2018-06-09T22:33:07.266Z,72.58
2018-06-09T22:36:11.648Z,71.76
2018-06-09T22:39:16.009Z,72.15
2018-06-09T22:42:20.364Z,72.44
2018-06-09T22:45:24.738Z,71.98
2018-06-09T22:48:29.125Z,72.29
2018-06-09T22:51:33.481Z,72.98
2018-06-09T22:54:37.886Z,73.14
2018-06-09T22:57:42.269Z,73.81
2018-06-09T23:00:50.194Z,73.54
2018-06-09T23:03:54.562Z,74.82
2018-06-09T23:06:58.920Z,74.54
2018-06-09T23:10:03.272Z,75.56
2018-06-09T23:13:07.640Z,75.46
2018-06-09T23:16:11.992Z,75.65
2018-06-09T23:19:16.388Z,75.95
2018-06-09T23:22:20.819Z,76.72
2018-06-09T23:25:25.157Z,77.04
2018-06-09T23:28:29.513Z,77.33
2018-06-09T23:31:33.877Z,77.07
2018-06-09T23:34:38.231Z,76.96
2018-06-09T23:37:42.629Z,77.21
2018-06-09T23:40:46.980Z,77.91
2018-06-09T23:43:51.353Z,77.75
2018-06-09T23:46:55.692Z,77.98
2018-06-09T23:50:00.099Z,77.75
2018-06-09T23:53:04.507Z,78.30
2018-06-09T23:56:08.945Z,78.45
2018-06-09T23:59:13.297Z,77.40
